KSUX/SUX METAR and TAF weather

Enter ICAO airport designator
Station Type Date Time Source
KSUX METAR 2019/08/26 06:52 UTC NOAA

KSUX 260652Z AUTO 14007KT 9SM SCT008 BKN022 18/17 A2979 RMK AO2 SLP081 T01780172


Station Type Date Time Source
KSUX Decoded METAR 2019/08/26 06:52 UTC NOAA

Station name not available
Aug 26, 2019 - 02:52 AM EDT / 2019.08.26 0652 UTC
Wind: from the SE (140 degrees) at 8 MPH (7 KT):0
Visibility: 9 mile(s):0
Sky conditions: mostly cloudy
Temperature: 64.0 F (17.8 C)
Dew Point: 63.0 F (17.2 C)
Relative Humidity: 96%
Pressure (altimeter): 29.79 in. Hg (1008 hPa)
ob: KSUX 260652Z AUTO 14007KT 9SM SCT008 BKN022 18/17 A2979 RMK AO2 SLP081 T01780172
cycle: 7

Station Type Date Time Source
KSUX TAF 2019/08/26 06:30 UTC NOAA

TAF KSUX 260528Z 2606/2706 14009KT P6SM OVC035
FM260700 13007KT P6SM BKN010
FM261000 14006KT P6SM VCSH OVC005
FM261600 30007KT P6SM BKN014
FM261900 32012G17KT P6SM VCSH BKN027
FM270200 31009KT P6SM SCT100

Example: see airport list